www.cux-wetter.de
Wetterdaten: Dienstag, 08.10.2013
Datum Zeit Temp. A. Feuchte A. Luftdruck Regen Wind Richtung Richtung Sonnenschein Solar Taupunkt Windchill Windben
08.10.2013 00:00 11,0 C 84 % 1024,5 hPa 0,0 l/m 0,0 km/h (0 Bft) S 190 0 min 0 W/m 8,4 C 11,0 C 0,0 km/h (0 Bft)
08.10.2013 00:15 11,0 C 84 % 1024,5 hPa 0,0 l/m 0,0 km/h (0 Bft) S 190 0 min 0 W/m 8,4 C 11,0 C 0,0 km/h (0 Bft)
08.10.2013 00:30 11,0 C 84 % 1024,5 hPa 0,0 l/m 0,0 km/h (0 Bft) S 190 0 min 0 W/m 8,4 C 11,0 C 0,0 km/h (0 Bft)
08.10.2013 00:45 11,1 C 84 % 1024,5 hPa 0,0 l/m 0,0 km/h (0 Bft) S 190 0 min 0 W/m 8,5 C 11,1 C 0,0 km/h (0 Bft)
08.10.2013 01:00 11,0 C 84 % 1024,5 hPa 0,0 l/m 0,0 km/h (0 Bft) S 190 0 min 0 W/m 8,4 C 11,0 C 0,0 km/h (0 Bft)
08.10.2013 01:15 10,9 C 84 % 1024,5 hPa 0,0 l/m 0,0 km/h (0 Bft) S 190 0 min 0 W/m 8,3 C 10,9 C 0,0 km/h (0 Bft)
08.10.2013 01:30 10,6 C 84 % 1024,5 hPa 0,0 l/m 0,0 km/h (0 Bft) S 190 0 min 0 W/m 8,0 C 10,6 C 0,0 km/h (0 Bft)
08.10.2013 01:45 10,5 C 85 % 1024,5 hPa 0,0 l/m 0,1 km/h (0 Bft) S 190 0 min 0 W/m 8,1 C 10,5 C 0,1 km/h (0 Bft)
08.10.2013 02:00 10,5 C 85 % 1024,5 hPa 0,0 l/m 0,0 km/h (0 Bft) S 190 0 min 0 W/m 8,1 C 10,5 C 0,0 km/h (0 Bft)
08.10.2013 02:15 10,6 C 85 % 1024,5 hPa 0,0 l/m 3,2 km/h (1 Bft) S 190 0 min 0 W/m 8,2 C 10,6 C 3,2 km/h (1 Bft)
08.10.2013 02:30 10,6 C 86 % 1024,5 hPa 0,0 l/m 0,0 km/h (0 Bft) S 190 0 min 0 W/m 8,4 C 10,6 C 0,0 km/h (0 Bft)
08.10.2013 02:45 10,6 C 86 % 1024,5 hPa 0,0 l/m 0,0 km/h (0 Bft) S 190 0 min 0 W/m 8,4 C 10,6 C 0,0 km/h (0 Bft)
08.10.2013 03:00 10,4 C 85 % 1024,5 hPa 0,0 l/m 0,0 km/h (0 Bft) S 190 0 min 0 W/m 8,0 C 10,4 C 0,0 km/h (0 Bft)
08.10.2013 03:15 10,3 C 86 % 1023,5 hPa 0,0 l/m 0,2 km/h (0 Bft) S 190 0 min 0 W/m 8,1 C 10,3 C 0,2 km/h (0 Bft)
08.10.2013 03:30 10,2 C 85 % 1023,5 hPa 0,0 l/m 0,0 km/h (0 Bft) S 190 0 min 0 W/m 7,8 C 10,2 C 0,0 km/h (0 Bft)
08.10.2013 03:45 10,1 C 85 % 1023,5 hPa 0,0 l/m 0,1 km/h (0 Bft) S 190 0 min 0 W/m 7,7 C 10,1 C 0,1 km/h (0 Bft)
08.10.2013 04:00 10,0 C 86 % 1023,5 hPa 0,0 l/m 0,0 km/h (0 Bft) S 190 0 min 0 W/m 7,8 C 10,0 C 0,0 km/h (0 Bft)
08.10.2013 04:15 10,1 C 86 % 1023,5 hPa 0,0 l/m 0,3 km/h (0 Bft) S-SW 195 0 min 0 W/m 7,9 C 10,1 C 0,3 km/h (0 Bft)
08.10.2013 04:30 10,1 C 86 % 1023,5 hPa 0,0 l/m 0,0 km/h (0 Bft) S-SW 195 0 min 0 W/m 7,9 C 10,1 C 0,0 km/h (0 Bft)
08.10.2013 04:45 10,2 C 86 % 1023,5 hPa 0,0 l/m 0,0 km/h (0 Bft) S 190 0 min 0 W/m 8,0 C 10,2 C 0,0 km/h (0 Bft)
08.10.2013 05:00 10,4 C 86 % 1023,5 hPa 0,0 l/m 0,0 km/h (0 Bft) S 190 0 min 0 W/m 8,2 C 10,4 C 0,0 km/h (0 Bft)
08.10.2013 05:15 10,4 C 87 % 1023,5 hPa 0,0 l/m 0,1 km/h (0 Bft) S 190 0 min 0 W/m 8,3 C 10,4 C 0,1 km/h (0 Bft)
08.10.2013 05:30 10,5 C 87 % 1023,5 hPa 0,0 l/m 0,3 km/h (0 Bft) S-SW 195 0 min 0 W/m 8,4 C 10,5 C 0,3 km/h (0 Bft)
08.10.2013 05:45 10,6 C 87 % 1023,5 hPa 0,0 l/m 0,3 km/h (0 Bft) S-SW 195 0 min 0 W/m 8,5 C 10,6 C 0,3 km/h (0 Bft)
08.10.2013 06:00 10,7 C 87 % 1023,5 hPa 0,0 l/m 0,1 km/h (0 Bft) S-SW 195 0 min 0 W/m 8,6 C 10,7 C 0,1 km/h (0 Bft)
08.10.2013 06:15 10,8 C 87 % 1023,5 hPa 0,0 l/m 0,0 km/h (0 Bft) S-SW 195 0 min 0 W/m 8,7 C 10,8 C 0,0 km/h (0 Bft)
08.10.2013 06:30 10,8 C 87 % 1023,5 hPa 0,0 l/m 0,1 km/h (0 Bft) S-SW 195 0 min 0 W/m 8,7 C 10,8 C 0,1 km/h (0 Bft)
08.10.2013 06:45 10,8 C 87 % 1023,5 hPa 0,0 l/m 0,3 km/h (0 Bft) S-SW 195 0 min 0 W/m 8,7 C 10,8 C 0,3 km/h (0 Bft)
08.10.2013 07:00 10,7 C 87 % 1023,5 hPa 0,0 l/m 0,0 km/h (0 Bft) S-SW 195 0 min 0 W/m 8,6 C 10,7 C 0,0 km/h (0 Bft)
08.10.2013 07:15 10,6 C 88 % 1023,5 hPa 0,0 l/m 0,6 km/h (0 Bft) S 190 0 min 0 W/m 8,7 C 10,6 C 0,6 km/h (0 Bft)
08.10.2013 07:30 10,7 C 88 % 1023,5 hPa 0,0 l/m 0,0 km/h (0 Bft) S 190 0 min 0 W/m 8,8 C 10,7 C 0,0 km/h (0 Bft)
08.10.2013 07:45 10,8 C 88 % 1023,5 hPa 0,0 l/m 0,1 km/h (0 Bft) S 190 0 min 0 W/m 8,9 C 10,8 C 0,1 km/h (0 Bft)
08.10.2013 08:00 10,8 C 88 % 1022,5 hPa 0,0 l/m 0,1 km/h (0 Bft) S 190 0 min 0 W/m 8,9 C 10,8 C 0,1 km/h (0 Bft)
08.10.2013 08:15 10,8 C 88 % 1023,5 hPa 0,0 l/m 0,9 km/h (0 Bft) S 190 0 min 0 W/m 8,9 C 10,8 C 0,9 km/h (0 Bft)
08.10.2013 08:30 10,9 C 88 % 1023,5 hPa 0,0 l/m 0,2 km/h (0 Bft) S 190 0 min 0 W/m 9,0 C 10,9 C 0,2 km/h (0 Bft)
08.10.2013 08:45 11,0 C 88 % 1023,5 hPa 0,0 l/m 0,2 km/h (0 Bft) S 190 0 min 0 W/m 9,1 C 11,0 C 0,2 km/h (0 Bft)
08.10.2013 09:00 11,2 C 88 % 1023,5 hPa 0,0 l/m 3,1 km/h (1 Bft) S-SW 195 0 min 0 W/m 9,3 C 11,2 C 3,1 km/h (1 Bft)
08.10.2013 09:15 11,3 C 89 % 1023,5 hPa 0,0 l/m 0,4 km/h (0 Bft) S-SW 195 0 min 0 W/m 9,6 C 11,3 C 0,4 km/h (0 Bft)
08.10.2013 09:30 11,5 C 89 % 1023,5 hPa 0,0 l/m 0,4 km/h (0 Bft) S 190 0 min 0 W/m 9,8 C 11,5 C 0,4 km/h (0 Bft)
08.10.2013 09:45 11,7 C 89 % 1023,5 hPa 0,0 l/m 1,0 km/h (0 Bft) S-SW 195 0 min 0 W/m 9,9 C 11,7 C 1,0 km/h (0 Bft)
08.10.2013 10:00 12,0 C 89 % 1023,5 hPa 0,0 l/m 0,6 km/h (0 Bft) S 190 0 min 0 W/m 10,2 C 12,0 C 0,6 km/h (0 Bft)
08.10.2013 10:15 12,2 C 89 % 1023,5 hPa 0,0 l/m 3,9 km/h (1 Bft) S 190 0 min 0 W/m 10,4 C 12,2 C 3,9 km/h (1 Bft)
08.10.2013 10:30 12,4 C 89 % 1023,5 hPa 0,0 l/m 6,2 km/h (2 Bft) S-SW 195 0 min 0 W/m 10,6 C 12,4 C 6,2 km/h (2 Bft)
08.10.2013 10:45 12,8 C 89 % 1023,5 hPa 0,0 l/m 6,8 km/h (2 Bft) S 190 0 min 0 W/m 11,0 C 12,6 C 6,8 km/h (2 Bft)
08.10.2013 11:00 13,1 C 89 % 1023,5 hPa 0,0 l/m 6,8 km/h (2 Bft) S-SW 195 0 min 0 W/m 11,3 C 12,9 C 6,8 km/h (2 Bft)
08.10.2013 11:15 13,4 C 88 % 1023,5 hPa 0,0 l/m 7,0 km/h (2 Bft) S-SW 210 0 min 0 W/m 11,5 C 13,0 C 7,0 km/h (2 Bft)
08.10.2013 11:30 13,7 C 87 % 1023,5 hPa 0,0 l/m 9,0 km/h (2 Bft) S-SW 200 0 min 0 W/m 11,6 C 12,2 C 9,0 km/h (2 Bft)
08.10.2013 11:45 14,0 C 86 % 1023,5 hPa 0,0 l/m 7,9 km/h (2 Bft) SW 215 0 min 0 W/m 11,7 C 13,1 C 7,9 km/h (2 Bft)
08.10.2013 11:59 14,4 C 84 % 1022,5 hPa 0,0 l/m 10,5 km/h (2 Bft) SW 215 0 min 0 W/m 11,7 C 12,2 C 10,5 km/h (2 Bft)
08.10.2013 12:15 14,9 C 83 % 1022,5 hPa 0,0 l/m 11,9 km/h (2 Bft) SW 220 0 min 0 W/m 12,0 C 12,2 C 11,9 km/h (2 Bft)
08.10.2013 12:30 15,3 C 81 % 1022,5 hPa 0,0 l/m 10,1 km/h (2 Bft) S-SW 210 0 min 0 W/m 12,1 C 13,4 C 10,1 km/h (2 Bft)
08.10.2013 12:45 16,1 C 78 % 1022,5 hPa 0,0 l/m 12,8 km/h (3 Bft) S-SW 210 0 min 0 W/m 12,3 C 13,2 C 12,8 km/h (3 Bft)
08.10.2013 13:00 16,8 C 75 % 1022,5 hPa 0,0 l/m 12,7 km/h (3 Bft) W 260 0 min 0 W/m 12,3 C 14,1 C 12,7 km/h (3 Bft)
08.10.2013 13:15 17,2 C 69 % 1022,5 hPa 0,0 l/m 18,9 km/h (3 Bft) W-SW 255 0 min 0 W/m 11,5 C 12,8 C 18,9 km/h (3 Bft)
08.10.2013 13:30 17,5 C 67 % 1021,5 hPa 0,0 l/m 21,0 km/h (4 Bft) W 270 0 min 0 W/m 11,3 C 12,8 C 21,0 km/h (4 Bft)
08.10.2013 13:44 17,8 C 65 % 1021,5 hPa 0,0 l/m 22,5 km/h (4 Bft) W 270 0 min 0 W/m 11,1 C 12,9 C 22,5 km/h (4 Bft)
08.10.2013 14:00 18,0 C 66 % 1021,5 hPa 0,0 l/m 20,6 km/h (4 Bft) W 260 0 min 0 W/m 11,6 C 13,5 C 20,6 km/h (4 Bft)
08.10.2013 14:15 17,5 C 67 % 1021,5 hPa 0,0 l/m 19,6 km/h (3 Bft) W 265 0 min 0 W/m 11,3 C 13,1 C 19,6 km/h (3 Bft)
08.10.2013 14:30 17,2 C 68 % 1021,5 hPa 0,0 l/m 20,9 km/h (4 Bft) W 270 0 min 0 W/m 11,2 C 12,4 C 20,9 km/h (4 Bft)
08.10.2013 14:45 17,0 C 68 % 1021,5 hPa 0,0 l/m 24,0 km/h (4 Bft) W 270 0 min 0 W/m 11,0 C 11,5 C 24,0 km/h (4 Bft)
08.10.2013 15:00 17,3 C 68 % 1021,5 hPa 0,0 l/m 20,0 km/h (4 Bft) W 270 0 min 0 W/m 11,3 C 12,7 C 20,0 km/h (4 Bft)
08.10.2013 15:15 17,2 C 68 % 1021,5 hPa 0,0 l/m 21,6 km/h (4 Bft) W 270 0 min 0 W/m 11,2 C 12,2 C 21,6 km/h (4 Bft)
08.10.2013 15:29 17,4 C 68 % 1020,5 hPa 0,0 l/m 23,0 km/h (4 Bft) W 270 0 min 0 W/m 11,4 C 12,2 C 23,0 km/h (4 Bft)
08.10.2013 15:45 17,4 C 69 % 1021,5 hPa 0,0 l/m 19,5 km/h (3 Bft) W 265 0 min 0 W/m 11,7 C 13,0 C 19,5 km/h (3 Bft)
08.10.2013 16:00 17,3 C 70 % 1020,5 hPa 0,0 l/m 21,3 km/h (4 Bft) W 265 0 min 0 W/m 11,8 C 12,4 C 21,3 km/h (4 Bft)
08.10.2013 16:15 17,1 C 71 % 1021,5 hPa 0,0 l/m 19,8 km/h (3 Bft) W 270 0 min 0 W/m 11,8 C 12,5 C 19,8 km/h (3 Bft)
08.10.2013 16:29 17,0 C 71 % 1021,5 hPa 0,0 l/m 16,5 km/h (3 Bft) W 265 0 min 0 W/m 11,7 C 13,2 C 16,5 km/h (3 Bft)
08.10.2013 16:45 17,1 C 72 % 1021,5 hPa 0,0 l/m 15,9 km/h (3 Bft) W 260 0 min 0 W/m 12,0 C 13,5 C 15,9 km/h (3 Bft)
08.10.2013 17:00 16,8 C 73 % 1021,5 hPa 0,0 l/m 11,8 km/h (2 Bft) W-SW 255 0 min 0 W/m 11,9 C 14,4 C 11,8 km/h (2 Bft)
08.10.2013 17:14 16,6 C 74 % 1020,5 hPa 0,0 l/m 17,7 km/h (3 Bft) W-SW 255 0 min 0 W/m 11,9 C 12,4 C 17,7 km/h (3 Bft)
08.10.2013 17:30 16,5 C 74 % 1020,5 hPa 0,0 l/m 12,9 km/h (3 Bft) W 260 0 min 0 W/m 11,8 C 13,7 C 12,9 km/h (3 Bft)
08.10.2013 17:45 16,3 C 75 % 1020,5 hPa 0,0 l/m 9,9 km/h (2 Bft) W 260 0 min 0 W/m 11,9 C 14,6 C 9,9 km/h (2 Bft)
08.10.2013 18:00 16,2 C 76 % 1020,5 hPa 0,0 l/m 5,6 km/h (2 Bft) W-SW 245 0 min 0 W/m 12,0 C 16,2 C 5,6 km/h (2 Bft)
08.10.2013 18:14 16,1 C 77 % 1020,5 hPa 0,0 l/m 4,2 km/h (1 Bft) W-SW 240 0 min 0 W/m 12,1 C 16,1 C 4,2 km/h (1 Bft)
08.10.2013 18:30 15,9 C 77 % 1020,5 hPa 0,0 l/m 0,0 km/h (0 Bft) W-SW 240 0 min 0 W/m 11,9 C 15,9 C 0,0 km/h (0 Bft)
08.10.2013 18:45 15,8 C 78 % 1020,5 hPa 0,0 l/m 3,9 km/h (1 Bft) W-SW 240 0 min 0 W/m 12,0 C 15,8 C 3,9 km/h (1 Bft)
08.10.2013 19:00 15,6 C 78 % 1020,5 hPa 0,0 l/m 3,7 km/h (1 Bft) W-SW 240 0 min 0 W/m 11,8 C 15,6 C 3,7 km/h (1 Bft)
08.10.2013 19:15 15,6 C 79 % 1020,5 hPa 0,0 l/m 4,7 km/h (1 Bft) W-SW 240 0 min 0 W/m 12,0 C 15,6 C 4,7 km/h (1 Bft)
08.10.2013 19:30 15,6 C 79 % 1020,5 hPa 0,0 l/m 3,3 km/h (1 Bft) W-SW 240 0 min 0 W/m 12,0 C 15,6 C 3,3 km/h (1 Bft)
08.10.2013 19:45 15,5 C 80 % 1020,5 hPa 0,0 l/m 3,6 km/h (1 Bft) W-SW 240 0 min 0 W/m 12,1 C 15,5 C 3,6 km/h (1 Bft)
08.10.2013 20:00 15,5 C 81 % 1020,5 hPa 0,0 l/m 7,0 km/h (2 Bft) W-SW 240 0 min 0 W/m 12,3 C 15,2 C 7,0 km/h (2 Bft)
08.10.2013 20:15 15,5 C 82 % 1020,5 hPa 0,0 l/m 14,0 km/h (3 Bft) W 270 0 min 0 W/m 12,4 C 12,1 C 14,0 km/h (3 Bft)
08.10.2013 20:30 15,6 C 82 % 1020,5 hPa 0,0 l/m 14,9 km/h (3 Bft) W 270 0 min 0 W/m 12,5 C 12,0 C 14,9 km/h (3 Bft)
08.10.2013 20:45 15,8 C 83 % 1020,5 hPa 0,0 l/m 14,6 km/h (3 Bft) W 265 0 min 0 W/m 12,9 C 12,3 C 14,6 km/h (3 Bft)
08.10.2013 21:00 15,8 C 84 % 1020,5 hPa 0,0 l/m 19,2 km/h (3 Bft) W 265 0 min 0 W/m 13,1 C 11,0 C 19,2 km/h (3 Bft)
08.10.2013 21:15 15,6 C 85 % 1020,5 hPa 0,0 l/m 22,7 km/h (4 Bft) W-NW 295 0 min 0 W/m 13,1 C 9,9 C 22,7 km/h (4 Bft)
08.10.2013 21:30 15,2 C 86 % 1020,5 hPa 0,0 l/m 15,7 km/h (3 Bft) W 265 0 min 0 W/m 12,9 C 11,2 C 15,7 km/h (3 Bft)
08.10.2013 21:45 15,1 C 88 % 1020,5 hPa 0,0 l/m 17,0 km/h (3 Bft) W 275 0 min 0 W/m 13,1 C 10,7 C 17,0 km/h (3 Bft)
08.10.2013 22:00 15,0 C 89 % 1020,5 hPa 0,0 l/m 16,0 km/h (3 Bft) W 265 0 min 0 W/m 13,2 C 10,9 C 16,0 km/h (3 Bft)
08.10.2013 22:15 15,0 C 90 % 1020,5 hPa 0,0 l/m 16,0 km/h (3 Bft) W 265 0 min 0 W/m 13,4 C 10,9 C 16,0 km/h (3 Bft)
08.10.2013 22:30 15,0 C 91 % 1020,5 hPa 0,0 l/m 15,3 km/h (3 Bft) W 265 0 min 0 W/m 13,5 C 11,1 C 15,3 km/h (3 Bft)
08.10.2013 22:45 15,0 C 91 % 1020,5 hPa 0,0 l/m 17,4 km/h (3 Bft) W 270 0 min 0 W/m 13,5 C 10,5 C 17,4 km/h (3 Bft)
08.10.2013 23:00 15,0 C 92 % 1020,5 hPa 0,0 l/m 21,7 km/h (4 Bft) W 275 0 min 0 W/m 13,7 C 9,3 C 21,7 km/h (4 Bft)
08.10.2013 23:15 15,0 C 92 % 1019,5 hPa 0,0 l/m 18,4 km/h (3 Bft) W 275 0 min 0 W/m 13,7 C 10,2 C 18,4 km/h (3 Bft)
08.10.2013 23:30 14,9 C 92 % 1020,5 hPa 0,0 l/m 18,3 km/h (3 Bft) W 270 0 min 0 W/m 13,6 C 10,1 C 18,3 km/h (3 Bft)
08.10.2013 23:45 14,9 C 92 % 1020,5 hPa 0,0 l/m 20,9 km/h (4 Bft) W 260 0 min 0 W/m 13,6 C 9,4 C 20,9 km/h (4 Bft)
_ Min-Zeit 04:00 13:44 23:15 - 00:00 - - - - 03:45 23:00 00:00
Minimum _ 10,0 C 65 % 1019,5 hPa - 0,0 km/h (0 Bft) - - - - 7,7 C 9,3 C 0,0 km/h (0 Bft)
_ Max-Zeit 14:00 23:00 00:00 00:00 14:45 - - 00:00 00:00 23:00 18:00 14:45
Maximum _ 18,0 C 92 % 1024,5 hPa 0,0 l/m 24,0 km/h
W (4 Bft)
- - 0 min 0 W/m 13,7 C 16,2 C 24,0 km/h
W (4 Bft)
Durchschnitt _ 13,6 C 82 % 1022,4 hPa #0,0 l/m 8,1 km/h (2 Bft) W - #0 min. 0 W/m 10,6 C 11,9 C 8,1 km/h (2 Bft)
copyright by Holger Just